createdAt,value
2023-02-03T00:02:09.851Z,-1.14
2023-02-03T00:04:38.974Z,-1.18
2023-02-03T00:07:08.292Z,-1.22
2023-02-03T00:09:37.594Z,-1.29
2023-02-03T00:12:09.072Z,-1.31
2023-02-03T00:14:39.020Z,-1.34
2023-02-03T00:17:08.308Z,-1.37
2023-02-03T00:19:37.411Z,-1.41
2023-02-03T00:22:06.704Z,-1.43
2023-02-03T00:24:35.821Z,-1.48
2023-02-03T00:27:05.267Z,-1.49
2023-02-03T00:29:35.852Z,-1.53
2023-02-03T01:10:59.954Z,-2.20
2023-02-03T01:13:30.019Z,-2.21
2023-02-03T01:15:59.325Z,-2.21
2023-02-03T01:18:28.797Z,-2.25
2023-02-03T01:20:58.025Z,-2.26
2023-02-03T01:23:29.556Z,-2.25
2023-02-03T01:26:04.898Z,-2.26
2023-02-03T01:28:34.739Z,-2.27
2023-02-03T01:31:12.006Z,-2.31
2023-02-03T01:33:42.500Z,-2.31
2023-02-03T01:36:11.496Z,-2.32
2023-02-03T01:38:41.139Z,-2.32
2023-02-03T01:41:14.361Z,-2.34
2023-02-03T01:43:46.830Z,-2.35
2023-02-03T01:46:29.568Z,-2.35
2023-02-03T01:49:06.309Z,-2.33
2023-02-03T01:51:36.427Z,-2.33
2023-02-03T01:54:08.656Z,-2.32
2023-02-03T01:56:43.645Z,-2.33
2023-02-03T01:59:16.197Z,-2.30
2023-02-03T02:01:46.414Z,-2.31
2023-02-03T02:04:16.514Z,-2.29
2023-02-03T02:06:48.209Z,-2.28
2023-02-03T02:09:18.344Z,-2.28
2023-02-03T02:11:49.089Z,-2.27
2023-02-03T02:14:18.629Z,-2.27
2023-02-03T02:16:55.548Z,-2.27
2023-02-03T02:19:55.096Z,-2.28
2023-02-03T02:22:31.826Z,-2.27
2023-02-03T02:25:31.888Z,-2.25
2023-02-03T02:28:12.334Z,-2.24
2023-02-03T02:31:14.429Z,-2.30
2023-02-03T02:33:53.400Z,-2.29
2023-02-03T02:36:31.523Z,-2.28
2023-02-03T02:39:07.185Z,-2.24
2023-02-03T02:41:44.071Z,-2.20
2023-02-03T02:44:18.703Z,-2.15
2023-02-03T02:46:51.595Z,-2.12
2023-02-03T02:49:28.250Z,-2.11
2023-02-03T02:52:01.223Z,-2.06
2023-02-03T02:54:32.559Z,-2.03
2023-02-03T02:57:05.715Z,-2.04
2023-02-03T02:59:35.282Z,-2.01
2023-02-03T03:02:05.274Z,-2.00
2023-02-03T03:04:37.661Z,-1.98
2023-02-03T03:07:13.951Z,-2.02
2023-02-03T03:09:47.624Z,-2.02
2023-02-03T03:12:21.518Z,-2.01
2023-02-03T03:14:55.472Z,-2.01
2023-02-03T03:17:29.456Z,-2.01
2023-02-03T03:20:04.274Z,-2.04
2023-02-03T03:22:40.414Z,-2.03
2023-02-03T03:25:16.216Z,-2.02
2023-02-03T03:27:51.177Z,-2.01
2023-02-03T03:34:03.428Z,-2.00
2023-02-03T03:36:41.201Z,-1.99
2023-02-03T03:39:16.737Z,-2.00
2023-02-03T03:41:56.778Z,-1.99
2023-02-03T03:44:32.464Z,-1.97
2023-02-03T03:47:10.354Z,-1.96
2023-02-03T03:49:45.321Z,-1.96
2023-02-03T03:52:20.197Z,-1.95
2023-02-03T03:54:51.563Z,-1.95
2023-02-03T03:57:24.194Z,-1.96
2023-02-03T03:59:55.439Z,-1.96
2023-02-03T04:02:25.370Z,-1.95
2023-02-03T04:04:56.155Z,-1.94
2023-02-03T04:07:38.348Z,-1.94
2023-02-03T04:10:15.523Z,-1.94
2023-02-03T04:12:44.685Z,-1.93
2023-02-03T04:15:14.169Z,-1.94
2023-02-03T04:17:43.268Z,-1.93
2023-02-03T04:20:13.912Z,-1.94
2023-02-03T04:22:44.544Z,-1.92
2023-02-03T04:25:13.967Z,-1.93
2023-02-03T04:27:43.721Z,-1.93
2023-02-03T04:30:14.609Z,-1.93
2023-02-03T04:32:43.879Z,-1.93
2023-02-03T04:35:13.309Z,-1.93
2023-02-03T04:37:44.273Z,-1.93
2023-02-03T04:40:14.708Z,-1.93
2023-02-03T04:42:43.655Z,-1.94
2023-02-03T04:45:14.142Z,-1.95
2023-02-03T04:47:43.331Z,-1.94
2023-02-03T04:50:12.709Z,-1.94
2023-02-03T04:52:42.139Z,-1.95
2023-02-03T04:55:12.944Z,-1.95
2023-02-03T04:57:42.361Z,-1.94
2023-02-03T05:00:13.514Z,-1.93
2023-02-03T05:02:42.768Z,-1.91
2023-02-03T05:05:12.141Z,-1.91
2023-02-03T05:07:41.287Z,-1.90
2023-02-03T05:10:13.129Z,-1.90
2023-02-03T05:12:42.391Z,-1.88
2023-02-03T05:15:11.983Z,-1.88
2023-02-03T05:17:41.293Z,-1.87
2023-02-03T05:20:11.829Z,-1.85
2023-02-03T05:22:41.000Z,-1.80
2023-02-03T05:25:12.343Z,-1.79
2023-02-03T05:27:42.508Z,-1.76
2023-02-03T05:30:13.043Z,-1.78
2023-02-03T05:32:42.242Z,-1.75
2023-02-03T05:35:11.596Z,-1.73
2023-02-03T05:37:40.788Z,-1.74
2023-02-03T05:40:30.440Z,-1.72
2023-02-03T05:42:59.972Z,-1.69
2023-02-03T05:45:29.431Z,-1.70
2023-02-03T05:47:58.665Z,-1.68
2023-02-03T05:50:30.450Z,-1.69
2023-02-03T05:53:09.857Z,-1.65
2023-02-03T05:55:41.404Z,-1.62
2023-02-03T05:58:10.775Z,-1.64
2023-02-03T06:00:40.164Z,-1.61
2023-02-03T06:03:09.465Z,-1.58
2023-02-03T06:05:41.222Z,-1.55
2023-02-03T06:08:10.808Z,-1.54
2023-02-03T06:10:41.620Z,-1.53
2023-02-03T06:13:12.411Z,-1.53
2023-02-03T06:15:42.328Z,-1.48
2023-02-03T06:18:11.659Z,-1.46
2023-02-03T06:20:41.004Z,-1.47
2023-02-03T06:23:10.182Z,-1.46
2023-02-03T06:25:40.925Z,-1.45
2023-02-03T06:28:10.411Z,-1.42
2023-02-03T06:30:39.849Z,-1.41
2023-02-03T06:33:09.096Z,-1.40
2023-02-03T06:35:38.783Z,-1.41
2023-02-03T06:38:08.055Z,-1.37
2023-02-03T06:40:37.408Z,-1.37
2023-02-03T06:43:07.992Z,-1.35
2023-02-03T06:45:37.447Z,-1.35
2023-02-03T06:48:06.691Z,-1.31
2023-02-03T06:50:36.154Z,-1.31
2023-02-03T06:53:05.232Z,-1.27
2023-02-03T06:55:34.724Z,-1.24
2023-02-03T06:58:03.818Z,-1.24
2023-02-03T07:00:34.585Z,-1.21
2023-02-03T07:03:04.568Z,-1.20
2023-02-03T07:05:36.065Z,-1.17
2023-02-03T07:08:05.379Z,-1.16
2023-02-03T07:10:36.411Z,-1.14
2023-02-03T07:13:06.573Z,-1.10
2023-02-03T07:15:37.547Z,-1.07
2023-02-03T07:18:06.922Z,-1.04
2023-02-03T07:20:36.236Z,-1.03
2023-02-03T07:23:05.482Z,-1.01
2023-02-03T07:25:35.176Z,-1.00
2023-02-03T07:28:04.427Z,-0.97
2023-02-03T07:30:34.054Z,-0.95
2023-02-03T07:33:05.008Z,-0.93
2023-02-03T07:35:35.080Z,-0.90
2023-02-03T07:38:04.274Z,-0.83
2023-02-03T07:40:33.704Z,-0.83
2023-02-03T07:43:02.883Z,-0.79
2023-02-03T07:45:32.229Z,-0.69
2023-02-03T07:48:01.644Z,-0.65
2023-02-03T07:50:33.197Z,-0.64
2023-02-03T07:53:03.143Z,-0.64
2023-02-03T07:55:32.780Z,-0.57
2023-02-03T07:58:03.336Z,-0.51
2023-02-03T08:00:33.204Z,-0.45
2023-02-03T08:03:02.575Z,-0.40
2023-02-03T08:05:33.505Z,-0.39
2023-02-03T08:08:02.905Z,-0.36
2023-02-03T08:10:32.303Z,-0.30
2023-02-03T08:13:01.444Z,-0.24
2023-02-03T08:15:30.804Z,-0.23
2023-02-03T08:17:59.928Z,-0.11
2023-02-03T08:20:29.620Z,-0.07
2023-02-03T08:23:00.515Z,-0.07
2023-02-03T08:25:30.062Z,-0.04
2023-02-03T08:27:59.392Z,0.03
2023-02-03T08:30:29.379Z,0.09
2023-02-03T08:32:59.816Z,0.07
2023-02-03T08:35:29.863Z,0.09
2023-02-03T08:38:00.545Z,0.15
2023-02-03T08:40:30.687Z,0.20
2023-02-03T08:43:00.211Z,0.23
2023-02-03T08:45:29.840Z,0.31
2023-02-03T08:47:59.348Z,0.38
2023-02-03T08:50:29.086Z,0.36
2023-02-03T08:53:00.405Z,0.42
2023-02-03T08:55:30.237Z,0.46
2023-02-03T08:57:59.630Z,0.47
2023-02-03T09:00:29.585Z,0.52
2023-02-03T09:02:58.741Z,0.55
2023-02-03T09:05:28.150Z,0.54
2023-02-03T09:08:00.095Z,0.55
2023-02-03T09:10:30.364Z,0.58
2023-02-03T09:12:59.925Z,0.65
2023-02-03T09:15:29.721Z,0.66
2023-02-03T09:17:59.019Z,0.70
2023-02-03T09:20:29.459Z,0.75
2023-02-03T09:23:01.633Z,0.76
2023-02-03T09:25:31.341Z,0.79
2023-02-03T09:28:02.465Z,0.84
2023-02-03T09:30:32.447Z,0.94
2023-02-03T09:33:02.162Z,0.95
2023-02-03T09:35:31.528Z,0.92
2023-02-03T09:38:02.454Z,0.97
2023-02-03T09:40:36.396Z,0.94
2023-02-03T09:43:24.183Z,0.98
2023-02-03T09:45:53.801Z,0.98
2023-02-03T09:48:26.066Z,1.03
2023-02-03T09:50:56.550Z,1.07
2023-02-03T09:53:32.178Z,1.04
2023-02-03T09:56:02.005Z,1.06
2023-02-03T09:58:35.870Z,1.06
2023-02-03T10:01:10.091Z,1.07
2023-02-03T10:03:45.664Z,1.11
2023-02-03T10:06:24.583Z,1.12
2023-02-03T10:09:11.031Z,1.12
2023-02-03T10:11:54.535Z,1.17
2023-02-03T10:14:40.291Z,1.13
2023-02-03T10:17:20.383Z,1.11
2023-02-03T10:19:56.529Z,1.12
2023-02-03T10:22:29.765Z,1.14
2023-02-03T10:25:06.657Z,1.13
2023-02-03T10:27:38.547Z,1.12
2023-02-03T10:30:19.218Z,1.11
2023-02-03T10:32:53.595Z,1.11
2023-02-03T10:35:27.357Z,1.13
2023-02-03T10:38:00.232Z,1.12
2023-02-03T10:40:31.768Z,1.12
2023-02-03T10:43:18.774Z,1.11
2023-02-03T10:45:48.086Z,1.08
2023-02-03T10:48:20.689Z,1.07
2023-02-03T10:50:51.839Z,1.08
2023-02-03T10:53:23.872Z,1.09
2023-02-03T10:56:04.916Z,1.04
2023-02-03T10:58:35.590Z,1.05
2023-02-03T11:01:11.863Z,1.07
2023-02-03T11:03:45.343Z,1.06
2023-02-03T11:06:16.707Z,1.08
2023-02-03T11:08:48.281Z,1.10
2023-02-03T11:11:25.350Z,1.11
2023-02-03T11:13:57.169Z,1.11
2023-02-03T11:16:26.666Z,1.13
2023-02-03T11:19:02.743Z,1.11
2023-02-03T11:21:35.047Z,1.19
2023-02-03T11:24:07.869Z,1.16
2023-02-03T11:26:44.346Z,1.19
2023-02-03T11:29:23.445Z,1.18
2023-02-03T11:31:56.068Z,1.20
2023-02-03T11:34:29.212Z,1.21
2023-02-03T11:36:58.802Z,1.18
2023-02-03T11:39:30.271Z,1.20
2023-02-03T11:42:01.178Z,1.19
2023-02-03T11:44:33.660Z,1.18
2023-02-03T11:47:08.771Z,1.19
2023-02-03T11:50:10.205Z,1.22
2023-02-03T11:53:03.056Z,1.20
2023-02-03T11:55:44.939Z,1.13
2023-02-03T11:58:44.894Z,1.09
2023-02-03T12:01:24.645Z,1.08
2023-02-03T12:04:36.797Z,1.12
2023-02-03T12:07:23.606Z,1.07
2023-02-03T12:10:05.610Z,1.07
2023-02-03T12:12:52.624Z,1.09
2023-02-03T12:15:55.059Z,1.03
2023-02-03T12:18:37.651Z,1.09
2023-02-03T12:21:24.399Z,1.04
2023-02-03T12:24:01.778Z,1.02
2023-02-03T12:26:40.427Z,1.05
2023-02-03T12:29:15.567Z,1.03
2023-02-03T12:31:52.886Z,1.03
2023-02-03T12:34:29.362Z,1.07
2023-02-03T12:37:03.346Z,1.06
2023-02-03T12:39:36.884Z,1.08
2023-02-03T12:42:15.880Z,1.10
2023-02-03T12:44:50.352Z,1.08
2023-02-03T12:47:29.487Z,1.13
2023-02-03T12:50:04.219Z,1.13
2023-02-03T12:52:40.054Z,1.13
2023-02-03T12:55:21.582Z,1.11
2023-02-03T12:57:58.796Z,1.13
2023-02-03T13:00:42.072Z,1.12
2023-02-03T13:03:31.733Z,1.13
2023-02-03T13:06:09.378Z,1.12
2023-02-03T13:08:42.422Z,1.10
2023-02-03T13:11:21.417Z,1.10
2023-02-03T13:13:53.613Z,1.14
2023-02-03T13:16:27.768Z,1.10
2023-02-03T13:19:05.899Z,1.06
2023-02-03T13:21:35.462Z,1.04
2023-02-03T13:24:06.005Z,1.08
2023-02-03T13:26:55.036Z,1.10
2023-02-03T13:29:59.820Z,1.05
2023-02-03T13:32:55.391Z,0.99
2023-02-03T13:35:38.397Z,1.05
2023-02-03T13:38:27.145Z,1.00
2023-02-03T13:41:06.023Z,1.02
2023-02-03T13:43:39.169Z,1.00
2023-02-03T13:46:20.924Z,1.02
2023-02-03T13:48:50.961Z,1.00
2023-02-03T13:51:25.166Z,1.00
2023-02-03T13:54:03.007Z,0.98
2023-02-03T13:56:33.855Z,0.96
2023-02-03T13:59:06.377Z,0.99
2023-02-03T14:01:40.107Z,1.05
2023-02-03T14:04:31.797Z,1.06
2023-02-03T14:07:05.031Z,1.04
2023-02-03T14:09:42.104Z,1.04
2023-02-03T14:12:37.161Z,1.03
2023-02-03T14:15:24.208Z,1.00
2023-02-03T14:18:01.733Z,1.03
2023-02-03T14:21:03.267Z,1.00
2023-02-03T14:24:00.136Z,1.06
2023-02-03T14:26:38.664Z,1.00
2023-02-03T14:29:09.605Z,1.00
2023-02-03T14:31:57.751Z,0.97
2023-02-03T14:34:33.062Z,0.98
2023-02-03T14:37:21.812Z,0.94
2023-02-03T14:40:23.795Z,0.96
2023-02-03T14:43:21.697Z,0.92
2023-02-03T14:46:15.660Z,0.92
2023-02-03T14:48:59.985Z,0.86
2023-02-03T14:51:53.102Z,0.88
2023-02-03T14:54:38.510Z,0.88
2023-02-03T14:57:23.440Z,0.84
2023-02-03T14:59:59.758Z,0.81
2023-02-03T15:02:31.519Z,0.81
2023-02-03T15:05:38.098Z,0.84
2023-02-03T15:08:22.847Z,0.83
2023-02-03T15:10:52.538Z,0.78
2023-02-03T15:13:28.504Z,0.73
2023-02-03T15:15:59.941Z,0.77
2023-02-03T15:18:32.292Z,0.78
2023-02-03T15:21:01.786Z,0.77
2023-02-03T15:23:42.118Z,0.70
2023-02-03T15:26:15.834Z,0.71
2023-02-03T15:28:54.627Z,0.71
2023-02-03T15:31:31.926Z,0.71
2023-02-03T15:34:07.243Z,0.69
2023-02-03T15:36:43.340Z,0.67
2023-02-03T15:39:24.881Z,0.70
2023-02-03T15:41:58.237Z,0.71
2023-02-03T15:44:34.771Z,0.70
2023-02-03T15:47:08.330Z,0.67
2023-02-03T15:49:43.420Z,0.64
2023-02-03T15:52:18.183Z,0.73
2023-02-03T15:54:53.839Z,0.65
2023-02-03T15:57:27.779Z,0.59
2023-02-03T16:00:14.043Z,0.60
2023-02-03T16:02:46.700Z,0.62
2023-02-03T16:05:26.171Z,0.60
2023-02-03T16:07:56.186Z,0.65
2023-02-03T16:10:30.208Z,0.60
2023-02-03T16:13:24.414Z,0.57
2023-02-03T16:16:08.722Z,0.55
2023-02-03T16:18:39.244Z,0.55
2023-02-03T16:21:32.118Z,0.58
2023-02-03T16:24:01.990Z,0.59
2023-02-03T16:26:34.696Z,0.61
2023-02-03T16:29:34.575Z,0.63
2023-02-03T16:32:36.590Z,0.62
2023-02-03T16:35:29.111Z,0.64
2023-02-03T16:38:23.300Z,0.58
2023-02-03T16:41:10.506Z,0.56
2023-02-03T16:43:57.939Z,0.54
2023-02-03T16:46:44.832Z,0.52
2023-02-03T16:49:32.945Z,0.51
2023-02-03T16:52:06.060Z,0.53
2023-02-03T16:54:37.330Z,0.51
2023-02-03T16:57:06.887Z,0.53
2023-02-03T16:59:35.978Z,0.55
2023-02-03T17:02:05.447Z,0.52
2023-02-03T17:04:36.521Z,0.49
2023-02-03T17:07:06.295Z,0.53
2023-02-03T17:09:35.594Z,0.59
2023-02-03T17:12:05.941Z,0.61
2023-02-03T17:14:35.487Z,0.65
2023-02-03T17:17:04.840Z,0.57
2023-02-03T17:19:38.275Z,0.57
2023-02-03T17:22:08.464Z,0.55
2023-02-03T17:24:37.651Z,0.50
2023-02-03T17:27:07.066Z,0.49
2023-02-03T17:29:36.299Z,0.48
2023-02-03T17:32:05.773Z,0.48
2023-02-03T17:34:35.332Z,0.48
2023-02-03T17:37:05.930Z,0.48
2023-02-03T17:53:33.082Z,0.44
2023-02-03T17:56:08.147Z,0.44
2023-02-03T17:58:38.216Z,0.45
2023-02-03T18:01:15.757Z,0.41
2023-02-03T18:03:46.765Z,0.36
2023-02-03T18:06:16.936Z,0.43
2023-02-03T18:08:50.571Z,0.49
2023-02-03T18:11:21.992Z,0.43
2023-02-03T18:13:52.202Z,0.41
2023-02-03T18:16:26.145Z,0.41
2023-02-03T18:18:58.659Z,0.42
2023-02-03T18:21:28.750Z,0.41
2023-02-03T18:24:02.247Z,0.38
2023-02-03T18:26:34.729Z,0.35
2023-02-03T18:29:05.925Z,0.35
2023-02-03T18:31:35.275Z,0.34
2023-02-03T18:34:06.079Z,0.39
2023-02-03T18:36:35.279Z,0.36
2023-02-03T18:39:06.288Z,0.34
2023-02-03T18:41:36.543Z,0.41
2023-02-03T18:44:06.594Z,0.43
2023-02-03T18:46:36.105Z,0.44
2023-02-03T18:49:08.721Z,0.41
2023-02-03T18:51:38.004Z,0.42
2023-02-03T18:54:08.962Z,0.41
2023-02-03T18:56:38.495Z,0.40
2023-02-03T18:59:09.838Z,0.40
2023-02-03T19:01:40.185Z,0.41
2023-02-03T19:04:10.323Z,0.41
2023-02-03T19:06:45.451Z,0.40
2023-02-03T19:09:19.540Z,0.40
2023-02-03T19:11:48.941Z,0.39
2023-02-03T19:14:20.214Z,0.41
2023-02-03T19:16:51.727Z,0.43
2023-02-03T19:19:21.999Z,0.42
2023-02-03T19:21:54.585Z,0.43
2023-02-03T19:24:27.286Z,0.44
2023-02-03T19:26:56.722Z,0.41
2023-02-03T19:29:26.061Z,0.40
2023-02-03T19:31:56.513Z,0.46
2023-02-03T19:34:27.625Z,0.43
2023-02-03T19:37:01.625Z,0.42
2023-02-03T19:39:32.729Z,0.38
2023-02-03T19:42:04.126Z,0.39
2023-02-03T19:44:33.662Z,0.37
2023-02-03T19:47:03.963Z,0.40
2023-02-03T19:49:34.303Z,0.38
2023-02-03T19:52:04.223Z,0.39
2023-02-03T19:54:35.907Z,0.40
2023-02-03T19:57:07.280Z,0.34
2023-02-03T19:59:36.791Z,0.39
2023-02-03T20:02:13.786Z,0.39
2023-02-03T20:04:44.628Z,0.32
2023-02-03T20:07:14.686Z,0.29
2023-02-03T20:09:46.397Z,0.35
2023-02-03T20:12:16.010Z,0.36
2023-02-03T20:14:46.085Z,0.35
2023-02-03T20:17:15.595Z,0.33
2023-02-03T20:19:45.102Z,0.40
2023-02-03T20:22:15.588Z,0.41
2023-02-03T20:24:46.876Z,0.42
2023-02-03T20:27:18.437Z,0.40
2023-02-03T20:29:49.927Z,0.40
2023-02-03T20:32:23.299Z,0.44
2023-02-03T20:34:54.021Z,0.48
2023-02-03T20:37:23.697Z,0.47
2023-02-03T20:39:56.743Z,0.43
2023-02-03T20:42:28.918Z,0.45
2023-02-03T20:44:58.691Z,0.51
2023-02-03T20:47:28.555Z,0.50
2023-02-03T20:49:59.479Z,0.55
2023-02-03T20:52:29.718Z,0.54
2023-02-03T20:55:00.521Z,0.55
2023-02-03T20:57:32.206Z,0.53
2023-02-03T21:00:03.087Z,0.51
2023-02-03T21:02:50.458Z,0.49
2023-02-03T21:05:27.429Z,0.57
2023-02-03T21:11:01.515Z,0.61
2023-02-03T21:13:36.057Z,0.65
2023-02-03T21:16:17.537Z,0.60
2023-02-03T21:18:50.637Z,0.60
2023-02-03T21:21:24.923Z,0.59
2023-02-03T21:23:56.242Z,0.65
2023-02-03T21:26:28.606Z,0.66
2023-02-03T21:29:00.641Z,0.68
2023-02-03T21:31:32.629Z,0.71
2023-02-03T21:34:04.074Z,0.67
2023-02-03T21:36:36.661Z,0.71
2023-02-03T21:39:25.502Z,0.70
2023-02-03T21:41:56.573Z,0.72
2023-02-03T21:44:31.718Z,0.72
2023-02-03T21:47:05.110Z,0.80
2023-02-03T21:49:35.129Z,0.72
2023-02-03T21:52:05.492Z,0.68
2023-02-03T21:54:42.171Z,0.71
2023-02-03T21:57:15.770Z,0.69
2023-02-03T21:59:47.248Z,0.71
2023-02-03T22:02:46.270Z,0.70
2023-02-03T22:05:17.626Z,0.65
2023-02-03T22:07:46.835Z,0.68
2023-02-03T22:10:16.416Z,0.69
2023-02-03T22:12:47.100Z,0.72
2023-02-03T22:15:16.662Z,0.69
2023-02-03T22:17:48.377Z,0.62
2023-02-03T22:20:17.860Z,0.64
2023-02-03T22:22:46.927Z,0.64
2023-02-03T22:25:16.444Z,0.66
2023-02-03T22:27:46.939Z,0.67
2023-02-03T22:30:18.135Z,0.66
2023-02-03T22:32:47.274Z,0.65
2023-02-03T22:35:16.751Z,0.68
2023-02-03T22:37:45.988Z,0.68
2023-02-03T22:40:15.330Z,0.71
2023-02-03T22:42:46.186Z,0.70
2023-02-03T22:45:16.260Z,0.70
2023-02-03T22:47:45.746Z,0.68
2023-02-03T22:50:17.469Z,0.67
2023-02-03T22:52:50.848Z,0.62
2023-02-03T22:55:20.410Z,0.65
2023-02-03T22:57:52.540Z,0.65
2023-02-03T23:00:23.656Z,0.59
2023-02-03T23:02:52.940Z,0.59
2023-02-03T23:05:23.215Z,0.56
2023-02-03T23:07:52.560Z,0.58
2023-02-03T23:10:24.396Z,0.61
2023-02-03T23:12:55.096Z,0.65
2023-02-03T23:15:24.800Z,0.58
2023-02-03T23:17:54.081Z,0.55
2023-02-03T23:20:23.656Z,0.55
2023-02-03T23:22:52.977Z,0.52
2023-02-03T23:25:22.848Z,0.53
2023-02-03T23:27:52.073Z,0.56
2023-02-03T23:30:23.064Z,0.59
2023-02-03T23:32:52.612Z,0.60
2023-02-03T23:35:39.501Z,0.58
2023-02-03T23:38:08.668Z,0.62
2023-02-03T23:40:38.030Z,0.59
2023-02-03T23:43:07.286Z,0.57
2023-02-03T23:45:37.992Z,0.57
2023-02-03T23:48:07.703Z,0.58
2023-02-03T23:50:37.387Z,0.61
2023-02-03T23:53:06.874Z,0.60
2023-02-03T23:55:36.504Z,0.60
2023-02-03T23:58:06.257Z,0.58
